createdAt,value
2019-04-29T00:00:24.950Z,100446.54
2019-04-29T00:02:56.727Z,100447.00
2019-04-29T00:05:27.755Z,100451.39
2019-04-29T00:07:58.260Z,100458.19
2019-04-29T00:10:28.874Z,100461.59
2019-04-29T00:12:59.368Z,100453.38
2019-04-29T00:15:31.412Z,100459.29
2019-04-29T00:18:03.601Z,100463.70
2019-04-29T00:20:35.766Z,100463.30
2019-04-29T00:23:06.503Z,100462.49
2019-04-29T00:25:38.060Z,100460.55
2019-04-29T00:28:08.543Z,100456.34
2019-04-29T00:30:39.074Z,100461.08
2019-04-29T00:33:09.616Z,100462.56
2019-04-29T00:35:41.470Z,100464.91
2019-04-29T00:38:13.631Z,100461.77
2019-04-29T00:41:03.007Z,100462.41
2019-04-29T00:43:35.099Z,100468.44
2019-04-29T00:46:05.995Z,100465.87
2019-04-29T00:48:37.501Z,100460.93
2019-04-29T00:51:08.061Z,100464.58
2019-04-29T00:53:39.789Z,100461.06
2019-04-29T00:56:10.378Z,100461.73
2019-04-29T00:58:40.891Z,100463.55
2019-04-29T01:01:13.956Z,100467.08
2019-04-29T01:03:44.456Z,100460.57
2019-04-29T01:06:14.932Z,100462.02
2019-04-29T01:08:47.383Z,100457.33
2019-04-29T01:11:17.877Z,100460.93
2019-04-29T01:13:48.359Z,100457.89
2019-04-29T01:16:19.908Z,100460.73
2019-04-29T01:18:51.473Z,100460.48
2019-04-29T01:21:21.881Z,100463.23
2019-04-29T01:23:52.446Z,100456.94
2019-04-29T01:26:24.469Z,100458.84
2019-04-29T01:28:56.583Z,100465.96
2019-04-29T01:31:28.829Z,100460.23
2019-04-29T01:34:01.024Z,100461.68
2019-04-29T01:36:34.196Z,100469.04
2019-04-29T01:39:06.336Z,100469.29
2019-04-29T01:41:42.015Z,100474.06
2019-04-29T01:44:14.067Z,100468.44
2019-04-29T01:46:45.694Z,100466.42
2019-04-29T01:49:16.353Z,100467.76
2019-04-29T01:51:46.874Z,100468.72
2019-04-29T01:54:17.420Z,100473.89
2019-04-29T01:56:48.965Z,100478.45
2019-04-29T01:59:19.712Z,100483.22
2019-04-29T02:01:50.251Z,100490.45
2019-04-29T02:04:20.892Z,100492.58
2019-04-29T02:06:51.446Z,100495.12
2019-04-29T02:09:23.573Z,100493.20
2019-04-29T02:11:55.238Z,100493.07
2019-04-29T02:14:26.891Z,100495.40
2019-04-29T02:16:57.467Z,100501.57
2019-04-29T02:19:28.132Z,100494.75
2019-04-29T02:22:09.483Z,100508.49
2019-04-29T02:24:41.612Z,100504.11
2019-04-29T02:27:12.178Z,100511.71
2019-04-29T02:29:42.733Z,100510.23
2019-04-29T02:32:15.387Z,100512.05
2019-04-29T02:34:46.937Z,100508.97
2019-04-29T02:37:23.600Z,100502.08
2019-04-29T02:40:01.785Z,100508.77
2019-04-29T02:42:46.144Z,100506.02
2019-04-29T02:45:18.474Z,100506.30
2019-04-29T02:47:49.112Z,100504.96
2019-04-29T02:50:20.092Z,100508.97
2019-04-29T02:52:50.684Z,100513.50
2019-04-29T02:55:22.822Z,100510.58
2019-04-29T02:57:54.917Z,100513.25
2019-04-29T03:00:27.087Z,100517.30
2019-04-29T03:03:06.436Z,100511.78
2019-04-29T03:05:39.994Z,100514.59
2019-04-29T03:08:10.859Z,100507.13
2019-04-29T03:10:41.429Z,100507.33
2019-04-29T03:13:11.897Z,100510.06
2019-04-29T03:15:43.062Z,100509.83
2019-04-29T03:18:13.546Z,100514.69
2019-04-29T03:20:48.419Z,100523.94
2019-04-29T03:23:21.694Z,100525.45
2019-04-29T03:25:52.241Z,100527.64
2019-04-29T03:28:23.875Z,100525.23
2019-04-29T03:30:55.457Z,100528.08
2019-04-29T03:33:27.078Z,100528.39
2019-04-29T03:35:57.625Z,100529.02
2019-04-29T03:38:28.185Z,100528.69
2019-04-29T03:40:58.722Z,100520.06
2019-04-29T03:43:29.242Z,100518.34
2019-04-29T03:46:00.943Z,100521.09
2019-04-29T03:48:31.535Z,100523.39
2019-04-29T03:51:03.175Z,100528.61
2019-04-29T03:53:33.693Z,100532.93
2019-04-29T03:56:05.359Z,100535.02
2019-04-29T03:58:36.986Z,100536.95
2019-04-29T04:01:19.539Z,100533.54
2019-04-29T04:03:51.675Z,100539.28
2019-04-29T04:06:30.162Z,100542.31
2019-04-29T04:09:06.343Z,100535.14
2019-04-29T04:11:34.402Z,100534.69
2019-04-29T04:14:04.984Z,100542.23
2019-04-29T04:16:53.716Z,100536.75
2019-04-29T04:19:25.016Z,100539.69
2019-04-29T04:21:55.789Z,100541.63
2019-04-29T04:24:26.499Z,100538.03
2019-04-29T04:26:57.073Z,100545.42
2019-04-29T04:29:27.756Z,100548.61
2019-04-29T04:32:01.941Z,100546.97
2019-04-29T04:34:32.631Z,100551.52
2019-04-29T04:37:04.213Z,100552.59
2019-04-29T04:39:37.588Z,100549.46
2019-04-29T04:42:08.219Z,100552.64
2019-04-29T04:44:47.529Z,100552.74
2019-04-29T04:47:18.888Z,100551.55
2019-04-29T04:49:49.485Z,100548.06
2019-04-29T04:52:20.291Z,100556.69
2019-04-29T04:54:53.430Z,100553.56
2019-04-29T04:57:25.048Z,100556.16
2019-04-29T04:59:56.931Z,100557.68
2019-04-29T05:02:27.710Z,100557.92
2019-04-29T05:04:58.492Z,100561.81
2019-04-29T05:07:29.171Z,100558.99
2019-04-29T05:09:59.742Z,100557.50
2019-04-29T05:12:30.603Z,100557.86
2019-04-29T05:15:01.134Z,100552.69
2019-04-29T05:17:32.037Z,100555.18
2019-04-29T05:20:02.592Z,100552.05
2019-04-29T05:22:33.225Z,100552.53
2019-04-29T05:25:06.490Z,100553.08
2019-04-29T05:27:36.941Z,100550.59
2019-04-29T05:30:12.286Z,100552.23
2019-04-29T05:32:42.889Z,100556.79
2019-04-29T05:35:20.836Z,100548.94
2019-04-29T05:38:03.492Z,100551.14
2019-04-29T05:40:38.920Z,100547.80
2019-04-29T05:43:12.220Z,100557.83
2019-04-29T05:46:02.559Z,100560.83
2019-04-29T05:48:33.265Z,100557.59
2019-04-29T05:51:05.440Z,100563.80
2019-04-29T05:53:37.698Z,100566.55
2019-04-29T05:56:09.379Z,100567.70
2019-04-29T05:58:41.072Z,100562.42
2019-04-29T06:01:13.269Z,100560.97
2019-04-29T06:03:44.591Z,100566.04
2019-04-29T06:06:15.219Z,100563.55
2019-04-29T06:08:45.821Z,100565.95
2019-04-29T06:11:16.430Z,100562.28
2019-04-29T06:13:46.989Z,100562.98
2019-04-29T06:16:21.019Z,100568.83
2019-04-29T06:18:59.435Z,100561.29
2019-04-29T06:21:23.144Z,100562.09
2019-04-29T06:23:54.716Z,100566.28
2019-04-29T06:26:26.830Z,100570.45
2019-04-29T06:28:57.385Z,100566.55
2019-04-29T06:31:28.052Z,100564.79
2019-04-29T06:34:00.745Z,100564.98
2019-04-29T06:36:31.770Z,100562.22
2019-04-29T06:39:02.294Z,100564.24
2019-04-29T06:41:34.256Z,100561.99
2019-04-29T06:44:06.237Z,100559.13
2019-04-29T06:46:36.910Z,100566.13
2019-04-29T06:49:10.469Z,100562.13
2019-04-29T06:51:40.698Z,100559.73
2019-04-29T06:54:11.319Z,100572.05
2019-04-29T06:56:42.196Z,100571.02
2019-04-29T06:59:13.988Z,100567.44
2019-04-29T07:01:44.678Z,100573.00
2019-04-29T07:04:15.222Z,100578.41
2019-04-29T07:06:56.688Z,100590.34
2019-04-29T07:09:17.973Z,100588.50
2019-04-29T07:11:49.667Z,100582.95
2019-04-29T07:14:21.353Z,100582.91
2019-04-29T07:16:51.896Z,100579.98
2019-04-29T07:19:26.498Z,100581.67
2019-04-29T07:21:56.625Z,100586.88
2019-04-29T07:24:27.252Z,100580.13
2019-04-29T07:27:02.200Z,100571.83
2019-04-29T07:29:32.817Z,100579.32
2019-04-29T07:32:09.162Z,100579.40
2019-04-29T07:34:39.551Z,100575.41
2019-04-29T07:37:09.203Z,100569.42
2019-04-29T07:39:39.681Z,100572.28
2019-04-29T07:42:11.673Z,100571.70
2019-04-29T07:44:44.442Z,100572.83
2019-04-29T07:47:15.127Z,100575.29
2019-04-29T07:49:47.370Z,100584.45
2019-04-29T07:52:17.849Z,100580.85
2019-04-29T07:54:55.079Z,100586.92
2019-04-29T07:57:22.501Z,100583.55
2019-04-29T07:59:56.091Z,100585.57
2019-04-29T08:02:27.869Z,100585.39
2019-04-29T08:04:58.472Z,100589.48
2019-04-29T08:07:28.996Z,100587.33
2019-04-29T08:09:59.639Z,100575.66
2019-04-29T08:12:30.671Z,100576.41
2019-04-29T08:15:07.721Z,100585.45
2019-04-29T08:17:36.444Z,100584.11
2019-04-29T08:20:10.337Z,100580.67
2019-04-29T08:22:41.206Z,100584.52
2019-04-29T08:25:11.724Z,100579.07
2019-04-29T08:27:43.870Z,100587.06
2019-04-29T08:30:16.571Z,100590.59
2019-04-29T08:32:47.765Z,100591.95
2019-04-29T08:35:19.242Z,100586.62
2019-04-29T08:37:49.813Z,100592.05
2019-04-29T08:40:20.342Z,100580.85
2019-04-29T08:42:56.549Z,100581.01
2019-04-29T08:45:28.702Z,100584.96
2019-04-29T08:48:00.613Z,100589.00
2019-04-29T08:50:33.147Z,100590.70
2019-04-29T08:53:04.078Z,100590.92
2019-04-29T08:55:36.527Z,100595.47
2019-04-29T08:58:11.344Z,100587.67
2019-04-29T09:00:39.548Z,100585.72
2019-04-29T09:03:12.236Z,100586.78
2019-04-29T09:05:46.107Z,100587.38
2019-04-29T09:08:16.078Z,100584.66
2019-04-29T09:10:51.427Z,100595.46
2019-04-29T09:13:21.954Z,100594.11
2019-04-29T09:15:52.495Z,100598.80
2019-04-29T09:18:24.000Z,100593.62
2019-04-29T09:20:54.546Z,100596.20
2019-04-29T09:23:26.799Z,100596.52
2019-04-29T09:26:06.045Z,100605.64
2019-04-29T09:28:36.586Z,100603.13
2019-04-29T09:31:07.092Z,100602.87
2019-04-29T09:33:37.550Z,100603.09
2019-04-29T09:36:09.606Z,100605.31
2019-04-29T09:38:41.194Z,100613.30
2019-04-29T09:41:14.291Z,100623.55
2019-04-29T09:43:59.311Z,100620.37
2019-04-29T09:46:30.050Z,100618.80
2019-04-29T09:49:01.831Z,100623.05
2019-04-29T09:51:32.374Z,100622.39
2019-04-29T09:54:03.004Z,100622.12
2019-04-29T09:56:34.832Z,100629.80
2019-04-29T09:59:24.552Z,100638.11
2019-04-29T10:01:58.167Z,100633.70
2019-04-29T10:04:36.274Z,100636.13
2019-04-29T10:07:07.755Z,100636.47
2019-04-29T10:09:56.040Z,100639.30
2019-04-29T10:12:16.470Z,100639.95
2019-04-29T10:14:47.230Z,100647.93
2019-04-29T10:17:31.786Z,100642.66
2019-04-29T10:20:19.158Z,100648.16
2019-04-29T10:22:50.212Z,100643.99
2019-04-29T10:25:21.814Z,100651.23
2019-04-29T10:27:55.264Z,100647.80
2019-04-29T10:30:31.228Z,100654.67
2019-04-29T10:33:00.664Z,100657.52
2019-04-29T10:35:31.254Z,100660.78
2019-04-29T10:38:02.777Z,100656.84
2019-04-29T10:40:43.273Z,100666.76
2019-04-29T10:43:17.251Z,100665.73
2019-04-29T10:45:50.534Z,100658.68
2019-04-29T10:48:25.434Z,100663.84
2019-04-29T10:50:58.462Z,100668.79
2019-04-29T10:53:29.027Z,100658.34
2019-04-29T10:56:01.031Z,100661.95
2019-04-29T10:58:35.490Z,100657.90
2019-04-29T11:01:12.510Z,100657.52
2019-04-29T11:03:43.275Z,100665.56
2019-04-29T11:06:16.251Z,100662.36
2019-04-29T11:08:51.060Z,100658.51
2019-04-29T11:11:26.777Z,100660.42
2019-04-29T11:13:57.686Z,100658.10
2019-04-29T11:16:45.342Z,100658.31
2019-04-29T11:19:05.343Z,100655.62
2019-04-29T11:21:38.813Z,100654.95
2019-04-29T11:24:13.172Z,100656.38
2019-04-29T11:26:52.478Z,100656.55
2019-04-29T11:29:27.192Z,100653.44
2019-04-29T11:31:56.741Z,100661.41
2019-04-29T11:34:29.259Z,100657.58
2019-04-29T11:37:00.808Z,100652.98
2019-04-29T11:39:32.455Z,100653.95
2019-04-29T11:42:03.009Z,100655.92
2019-04-29T11:44:33.625Z,100658.49
2019-04-29T11:47:04.193Z,100655.22
2019-04-29T11:49:36.328Z,100653.08
2019-04-29T11:52:09.586Z,100655.80
2019-04-29T11:54:40.298Z,100660.75
2019-04-29T11:57:12.345Z,100658.72
2019-04-29T12:00:00.766Z,100657.36
2019-04-29T12:02:46.396Z,100659.80
2019-04-29T12:05:21.329Z,100661.78
2019-04-29T12:07:52.933Z,100661.26
2019-04-29T12:10:23.538Z,100650.83
2019-04-29T12:12:54.621Z,100655.98
2019-04-29T12:15:32.683Z,100656.56
2019-04-29T12:18:14.838Z,100657.72
2019-04-29T12:20:56.093Z,100653.16
2019-04-29T12:23:27.578Z,100652.20
2019-04-29T12:25:58.715Z,100654.84
2019-04-29T12:28:30.376Z,100650.63
2019-04-29T12:31:05.746Z,100644.22
2019-04-29T12:33:40.210Z,100644.09
2019-04-29T12:36:16.310Z,100642.17
2019-04-29T12:38:55.128Z,100642.80
2019-04-29T12:41:48.220Z,100643.11
2019-04-29T12:44:10.170Z,100646.69
2019-04-29T12:46:42.208Z,100634.95
2019-04-29T12:49:13.753Z,100636.84
2019-04-29T12:51:44.513Z,100641.88
2019-04-29T12:54:15.109Z,100644.06
2019-04-29T12:56:47.973Z,100644.27
2019-04-29T12:59:17.747Z,100636.69
2019-04-29T13:01:52.246Z,100634.45
2019-04-29T13:04:28.120Z,100636.09
2019-04-29T13:07:11.103Z,100636.17
2019-04-29T13:09:57.324Z,100627.27
2019-04-29T13:12:30.287Z,100625.93
2019-04-29T13:15:03.171Z,100625.01
2019-04-29T13:18:03.038Z,100635.50
2019-04-29T13:20:25.781Z,100635.34
2019-04-29T13:23:01.007Z,100639.30
2019-04-29T13:25:29.844Z,100644.47
2019-04-29T13:28:04.008Z,100638.59
2019-04-29T13:30:32.559Z,100637.55
2019-04-29T13:33:05.948Z,100639.89
2019-04-29T13:35:35.243Z,100631.00
2019-04-29T13:38:05.773Z,100636.52
2019-04-29T13:40:38.931Z,100642.73
2019-04-29T13:43:09.633Z,100643.50
2019-04-29T13:45:42.960Z,100646.23
2019-04-29T13:48:33.109Z,100639.55
2019-04-29T13:51:05.229Z,100641.30
2019-04-29T13:53:35.850Z,100638.02
2019-04-29T13:56:11.654Z,100638.23
2019-04-29T13:58:38.652Z,100647.73
2019-04-29T14:01:23.948Z,100646.70
2019-04-29T14:04:02.678Z,100644.33
2019-04-29T14:06:34.447Z,100645.66
2019-04-29T14:09:06.420Z,100648.39
2019-04-29T14:11:38.479Z,100652.72
2019-04-29T14:14:10.026Z,100660.77
2019-04-29T14:16:43.133Z,100653.00
2019-04-29T14:19:13.787Z,100654.00
2019-04-29T14:21:44.352Z,100656.92
2019-04-29T14:24:14.848Z,100656.42
2019-04-29T14:26:47.872Z,100674.18
2019-04-29T14:29:17.556Z,100668.85
2019-04-29T14:31:49.644Z,100655.92
2019-04-29T14:34:30.570Z,100657.00
2019-04-29T14:37:18.768Z,100649.63
2019-04-29T14:39:37.282Z,100651.68
2019-04-29T14:42:30.176Z,100653.95
2019-04-29T14:45:00.960Z,100655.54
2019-04-29T14:47:36.092Z,100653.45
2019-04-29T14:50:15.602Z,100655.09
2019-04-29T14:52:44.878Z,100652.73
2019-04-29T14:55:20.208Z,100649.77
2019-04-29T14:57:49.082Z,100639.11
2019-04-29T15:00:21.221Z,100649.94
2019-04-29T15:02:55.829Z,100646.19
2019-04-29T15:05:26.275Z,100644.30
2019-04-29T15:07:56.721Z,100639.70
2019-04-29T15:10:30.952Z,100646.96
2019-04-29T15:13:19.337Z,100644.77
2019-04-29T15:15:38.164Z,100644.96
2019-04-29T15:18:46.136Z,100633.69
2019-04-29T15:21:05.828Z,100629.38
2019-04-29T15:23:34.020Z,100629.52
2019-04-29T15:26:04.651Z,100639.34
2019-04-29T15:28:51.723Z,100629.25
2019-04-29T15:31:23.263Z,100629.12
2019-04-29T15:33:53.831Z,100643.03
2019-04-29T15:36:26.010Z,100639.22
2019-04-29T15:39:09.044Z,100640.30
2019-04-29T15:41:31.147Z,100657.25
2019-04-29T15:44:08.701Z,100646.30
2019-04-29T15:46:46.361Z,100650.94
2019-04-29T15:49:08.726Z,100652.86
2019-04-29T15:51:39.366Z,100661.05
2019-04-29T15:54:14.353Z,100658.44
2019-04-29T15:56:43.421Z,100653.11
2019-04-29T15:59:16.177Z,100668.73
2019-04-29T16:01:46.973Z,100658.91
2019-04-29T16:04:20.936Z,100662.42
2019-04-29T16:07:17.090Z,100644.02
2019-04-29T16:09:54.470Z,100658.10
2019-04-29T16:12:35.546Z,100658.52
2019-04-29T16:15:10.120Z,100663.41
2019-04-29T16:17:40.798Z,100658.80
2019-04-29T16:20:11.386Z,100656.73
2019-04-29T16:22:42.902Z,100659.75
2019-04-29T16:25:13.375Z,100661.96
2019-04-29T16:27:51.514Z,100673.77
2019-04-29T16:30:18.907Z,100680.37
2019-04-29T16:32:48.932Z,100670.77
2019-04-29T16:35:23.671Z,100676.81
2019-04-29T16:37:52.573Z,100671.92
2019-04-29T16:40:24.228Z,100683.89
2019-04-29T16:43:05.727Z,100677.59
2019-04-29T16:45:51.563Z,100679.32
2019-04-29T16:48:22.123Z,100689.83
2019-04-29T16:50:52.759Z,100696.23
2019-04-29T16:53:24.289Z,100687.20
2019-04-29T16:55:55.471Z,100692.52
2019-04-29T16:58:26.011Z,100688.91
2019-04-29T17:00:58.363Z,100688.25
2019-04-29T17:03:29.793Z,100683.64
2019-04-29T17:06:00.329Z,100697.78
2019-04-29T17:08:32.555Z,100703.80
2019-04-29T17:11:04.626Z,100692.20
2019-04-29T17:13:35.258Z,100696.69
2019-04-29T17:16:07.374Z,100706.80
2019-04-29T17:18:40.038Z,100707.89
2019-04-29T17:21:10.642Z,100708.83
2019-04-29T17:23:42.299Z,100700.55
2019-04-29T17:26:13.051Z,100707.82
2019-04-29T17:28:48.295Z,100713.09
2019-04-29T17:31:37.271Z,100707.07
2019-04-29T17:34:10.398Z,100709.91
2019-04-29T17:36:41.007Z,100706.28
2019-04-29T17:39:11.649Z,100697.27
2019-04-29T17:41:43.230Z,100702.44
2019-04-29T17:44:24.326Z,100699.89
2019-04-29T17:47:06.985Z,100708.17
2019-04-29T17:49:40.355Z,100704.66
2019-04-29T17:52:15.814Z,100696.52
2019-04-29T17:54:48.069Z,100696.27
2019-04-29T17:57:28.633Z,100712.98
2019-04-29T18:00:08.515Z,100701.80
2019-04-29T18:02:57.298Z,100702.26
2019-04-29T18:05:52.119Z,100707.03
2019-04-29T18:08:09.763Z,100709.00
2019-04-29T18:10:47.869Z,100707.03
2019-04-29T18:13:23.670Z,100703.73
2019-04-29T18:16:00.932Z,100707.48
2019-04-29T18:18:27.974Z,100716.31
2019-04-29T18:21:03.168Z,100721.09
2019-04-29T18:23:51.541Z,100730.12
2019-04-29T18:26:38.997Z,100720.86
2019-04-29T18:29:10.568Z,100723.72
2019-04-29T18:31:44.424Z,100725.03
2019-04-29T18:34:15.273Z,100733.94
2019-04-29T18:36:47.481Z,100725.62
2019-04-29T18:39:20.076Z,100723.52
2019-04-29T18:41:51.991Z,100728.00
2019-04-29T18:44:22.674Z,100728.63
2019-04-29T18:46:57.025Z,100729.33
2019-04-29T18:49:26.117Z,100721.72
2019-04-29T18:51:57.882Z,100718.50
2019-04-29T18:54:29.157Z,100701.59
2019-04-29T18:57:00.817Z,100705.14
2019-04-29T18:59:35.007Z,100711.58
2019-04-29T19:02:07.724Z,100708.42
2019-04-29T19:04:41.408Z,100713.06
2019-04-29T19:07:11.893Z,100717.50
2019-04-29T19:09:42.370Z,100713.92
2019-04-29T19:12:12.938Z,100718.77
2019-04-29T19:14:47.659Z,100717.44
2019-04-29T19:17:16.547Z,100721.67
2019-04-29T19:19:47.298Z,100723.80
2019-04-29T19:22:18.763Z,100724.23
2019-04-29T19:24:49.243Z,100711.86
2019-04-29T19:27:19.809Z,100703.80
2019-04-29T19:29:50.588Z,100707.08
2019-04-29T19:32:23.104Z,100692.50
2019-04-29T19:34:54.983Z,100697.27
2019-04-29T19:37:32.104Z,100703.61
2019-04-29T19:39:59.647Z,100693.27
2019-04-29T19:42:35.648Z,100690.81
2019-04-29T19:45:06.426Z,100701.31
2019-04-29T19:47:36.168Z,100694.69
2019-04-29T19:50:10.314Z,100697.94
2019-04-29T19:52:40.408Z,100693.76
2019-04-29T19:55:10.921Z,100683.52
2019-04-29T19:57:46.579Z,100684.95
2019-04-29T20:00:17.251Z,100672.92
2019-04-29T20:02:50.344Z,100682.60
2019-04-29T20:05:34.059Z,100684.02
2019-04-29T20:08:03.331Z,100683.59
2019-04-29T20:10:42.582Z,100687.11
2019-04-29T20:13:07.988Z,100683.12
2019-04-29T20:15:45.183Z,100682.20
2019-04-29T20:18:34.527Z,100685.31
2019-04-29T20:21:08.619Z,100682.11
2019-04-29T20:23:36.162Z,100675.78
2019-04-29T20:26:13.795Z,100676.05
2019-04-29T20:28:37.346Z,100680.22
2019-04-29T20:31:16.233Z,100681.08
2019-04-29T20:33:42.181Z,100682.80
2019-04-29T20:36:12.567Z,100689.53
2019-04-29T20:38:45.486Z,100689.96
2019-04-29T20:41:19.599Z,100688.73
2019-04-29T20:43:48.817Z,100687.64
2019-04-29T20:46:19.562Z,100678.55
2019-04-29T20:48:54.358Z,100684.78
2019-04-29T20:51:23.200Z,100685.13
2019-04-29T20:53:59.213Z,100685.16
2019-04-29T20:56:35.026Z,100690.72
2019-04-29T20:59:09.422Z,100673.95
2019-04-29T21:01:43.153Z,100679.55
2019-04-29T21:04:09.386Z,100676.41
2019-04-29T21:06:51.338Z,100679.25
2019-04-29T21:09:14.951Z,100687.44
2019-04-29T21:11:56.627Z,100690.39
2019-04-29T21:14:33.991Z,100687.23
2019-04-29T21:17:06.659Z,100687.91
2019-04-29T21:19:34.426Z,100676.83
2019-04-29T21:22:05.264Z,100679.31
2019-04-29T21:24:35.953Z,100685.34
2019-04-29T21:27:06.445Z,100683.59
2019-04-29T21:29:37.345Z,100681.76
2019-04-29T21:32:07.829Z,100683.56
2019-04-29T21:34:39.889Z,100684.13
2019-04-29T21:37:12.875Z,100687.01
2019-04-29T21:39:46.697Z,100692.21
2019-04-29T21:42:21.256Z,100682.34
2019-04-29T21:44:51.861Z,100681.48
2019-04-29T21:47:25.315Z,100673.75
2019-04-29T21:49:57.742Z,100672.52
2019-04-29T21:52:28.415Z,100673.84
2019-04-29T21:54:59.098Z,100673.52
2019-04-29T21:57:31.119Z,100673.33
2019-04-29T22:00:01.794Z,100672.30
2019-04-29T22:02:33.406Z,100675.88
2019-04-29T22:05:09.557Z,100671.53
2019-04-29T22:07:45.966Z,100673.95
2019-04-29T22:10:15.223Z,100667.72
2019-04-29T22:12:45.929Z,100667.72
2019-04-29T22:15:16.520Z,100662.91
2019-04-29T22:17:56.249Z,100658.91
2019-04-29T22:20:19.343Z,100660.60
2019-04-29T22:22:49.865Z,100660.80
2019-04-29T22:25:20.581Z,100666.50
2019-04-29T22:27:52.304Z,100671.20
2019-04-29T22:30:23.991Z,100659.48
2019-04-29T22:32:58.110Z,100664.26
2019-04-29T22:35:27.727Z,100657.02
2019-04-29T22:37:59.627Z,100655.82
2019-04-29T22:40:34.155Z,100654.17
2019-04-29T22:43:06.082Z,100654.75
2019-04-29T22:45:36.225Z,100652.20
2019-04-29T22:48:14.924Z,100650.24
2019-04-29T22:50:40.214Z,100647.66
2019-04-29T22:53:10.894Z,100646.80
2019-04-29T22:55:42.393Z,100664.16
2019-04-29T22:58:15.134Z,100656.37
2019-04-29T23:00:45.775Z,100650.86
2019-04-29T23:03:17.307Z,100642.44
2019-04-29T23:05:47.769Z,100647.92
2019-04-29T23:08:18.407Z,100641.80
2019-04-29T23:10:48.898Z,100638.24
2019-04-29T23:13:19.496Z,100635.70
2019-04-29T23:15:53.804Z,100628.60
2019-04-29T23:18:27.108Z,100622.47
2019-04-29T23:21:16.476Z,100617.23
2019-04-29T23:24:13.153Z,100617.63
2019-04-29T23:26:42.246Z,100613.30
2019-04-29T23:29:12.648Z,100613.61
2019-04-29T23:31:43.205Z,100600.78
2019-04-29T23:34:15.568Z,100604.88
2019-04-29T23:36:48.865Z,100609.67
2019-04-29T23:39:18.151Z,100621.86
2019-04-29T23:41:48.776Z,100613.55
2019-04-29T23:44:21.279Z,100610.06
2019-04-29T23:46:51.852Z,100619.42
2019-04-29T23:49:22.299Z,100609.75
2019-04-29T23:51:52.703Z,100608.63
2019-04-29T23:54:24.864Z,100602.83
2019-04-29T23:57:00.165Z,100604.44
2019-04-29T23:59:32.460Z,100606.23
